createdAt,value
2019-05-15T00:03:13.304Z,4.33
2019-05-15T00:06:08.985Z,4.65
2019-05-15T00:12:00.294Z,4.20
2019-05-15T00:14:29.831Z,5.05
2019-05-15T00:17:00.973Z,4.50
2019-05-15T00:19:33.004Z,4.47
2019-05-15T00:22:03.753Z,4.67
2019-05-15T00:24:33.219Z,4.58
2019-05-15T00:27:02.688Z,4.50
2019-05-15T00:29:38.344Z,4.17
2019-05-15T00:32:09.185Z,4.42
2019-05-15T00:34:38.882Z,4.30
2019-05-15T00:37:09.448Z,4.30
2019-05-15T00:39:44.240Z,4.10
2019-05-15T00:42:14.818Z,4.10
2019-05-15T00:44:44.247Z,4.37
2019-05-15T00:47:15.478Z,4.20
2019-05-15T00:49:48.824Z,4.30
2019-05-15T00:52:19.728Z,4.78
2019-05-15T00:54:49.295Z,4.70
2019-05-15T00:57:19.200Z,4.45
2019-05-15T00:59:49.714Z,4.45
2019-05-15T01:02:23.393Z,4.42
2019-05-15T01:04:52.814Z,4.87
2019-05-15T01:07:22.318Z,4.53
2019-05-15T01:09:51.801Z,4.53
2019-05-15T01:12:23.686Z,4.67
2019-05-15T01:14:53.194Z,5.03
2019-05-15T01:17:22.721Z,4.80
2019-05-15T01:19:52.673Z,5.20
2019-05-15T01:22:23.500Z,4.65
2019-05-15T01:24:53.009Z,4.92
2019-05-15T01:27:23.498Z,5.20
2019-05-15T01:29:52.973Z,5.70
2019-05-15T01:32:29.004Z,5.55
2019-05-15T01:34:59.260Z,5.10
2019-05-15T01:37:28.759Z,5.10
2019-05-15T01:39:59.825Z,5.45
2019-05-15T01:42:29.896Z,5.80
2019-05-15T01:44:59.433Z,6.40
2019-05-15T01:47:28.972Z,6.42
2019-05-15T01:49:58.477Z,6.40
2019-05-15T01:52:30.542Z,6.75
2019-05-15T01:55:03.002Z,6.22
2019-05-15T01:57:32.648Z,6.28
2019-05-15T02:00:02.281Z,7.25
2019-05-15T02:02:34.822Z,7.12
2019-05-15T02:05:08.362Z,7.00
2019-05-15T02:07:39.200Z,7.10
2019-05-15T02:10:10.014Z,7.67
2019-05-15T02:12:39.437Z,7.28
2019-05-15T02:15:14.127Z,7.45
2019-05-15T02:17:48.083Z,7.62
2019-05-15T02:20:18.738Z,7.47
2019-05-15T02:22:49.570Z,7.75
2019-05-15T02:25:19.033Z,7.55
2019-05-15T02:27:49.872Z,7.90
2019-05-15T02:30:28.433Z,7.97
2019-05-15T02:32:53.848Z,7.47
2019-05-15T02:35:25.121Z,8.28
2019-05-15T02:37:59.549Z,7.78
2019-05-15T02:40:29.464Z,7.70
2019-05-15T02:42:59.229Z,7.53
2019-05-15T02:45:30.086Z,7.62
2019-05-15T02:47:59.887Z,7.87
2019-05-15T02:50:29.429Z,7.90
2019-05-15T02:53:00.587Z,8.08
2019-05-15T02:55:29.977Z,7.40
2019-05-15T02:57:59.589Z,8.35
2019-05-15T03:00:41.674Z,8.33
2019-05-15T03:03:02.177Z,7.60
2019-05-15T03:05:35.170Z,7.90
2019-05-15T03:11:40.832Z,8.20
2019-05-15T03:20:29.851Z,8.65
2019-05-15T03:22:59.726Z,8.70
2019-05-15T03:25:34.308Z,8.68
2019-05-15T03:28:10.091Z,8.55
2019-05-15T03:31:06.513Z,8.25
2019-05-15T03:33:17.323Z,8.25
2019-05-15T03:35:43.057Z,9.08
2019-05-15T03:38:11.211Z,8.75
2019-05-15T03:40:42.196Z,7.87
2019-05-15T03:43:11.761Z,8.65
2019-05-15T03:45:45.002Z,8.43
2019-05-15T03:48:20.027Z,9.20
2019-05-15T03:50:49.810Z,8.63
2019-05-15T03:53:19.742Z,9.08
2019-05-15T03:55:49.365Z,8.60
2019-05-15T03:58:21.298Z,9.33
2019-05-15T04:00:50.147Z,8.93
2019-05-15T04:03:20.428Z,9.98
2019-05-15T04:05:52.044Z,10.60
2019-05-15T04:08:22.592Z,9.33
2019-05-15T04:10:52.998Z,9.58
2019-05-15T04:13:24.429Z,9.68
2019-05-15T04:15:55.406Z,9.68
2019-05-15T04:18:29.100Z,9.55
2019-05-15T04:21:00.584Z,9.68
2019-05-15T04:23:31.895Z,9.83
2019-05-15T04:26:03.443Z,9.93
2019-05-15T04:28:35.155Z,9.68
2019-05-15T04:31:04.525Z,9.30
2019-05-15T04:33:34.011Z,9.83
2019-05-15T04:36:04.800Z,9.85
2019-05-15T04:38:34.375Z,10.78
2019-05-15T04:41:03.935Z,9.70
2019-05-15T04:43:41.351Z,9.65
2019-05-15T04:46:09.831Z,9.98
2019-05-15T04:48:40.497Z,9.70
2019-05-15T04:51:10.141Z,9.68
2019-05-15T04:53:40.044Z,9.90
2019-05-15T04:56:09.864Z,9.93
2019-05-15T04:58:39.946Z,9.90
2019-05-15T05:01:09.767Z,10.45
2019-05-15T05:03:39.867Z,9.83
2019-05-15T05:06:10.120Z,9.63
2019-05-15T05:08:41.111Z,9.68
2019-05-15T05:11:11.836Z,9.98
2019-05-15T05:13:43.321Z,10.08
2019-05-15T05:16:13.775Z,9.68
2019-05-15T05:18:48.591Z,9.75
2019-05-15T05:21:18.390Z,10.78
2019-05-15T05:23:48.484Z,9.80
2019-05-15T05:26:18.971Z,9.78
2019-05-15T05:28:49.089Z,10.03
2019-05-15T05:31:19.220Z,10.55
2019-05-15T05:33:48.867Z,10.13
2019-05-15T05:36:20.394Z,10.55
2019-05-15T05:38:49.849Z,10.23
2019-05-15T05:41:20.245Z,10.05
2019-05-15T05:43:49.676Z,10.93
2019-05-15T05:46:20.433Z,10.13
2019-05-15T05:48:49.876Z,9.95
2019-05-15T05:51:19.509Z,10.80
2019-05-15T05:53:48.982Z,10.05
2019-05-15T05:56:18.510Z,10.20
2019-05-15T05:58:49.154Z,10.80
2019-05-15T06:01:20.729Z,10.38
2019-05-15T06:03:50.218Z,11.43
2019-05-15T06:06:21.036Z,10.20
2019-05-15T06:08:51.462Z,10.88
2019-05-15T06:11:20.899Z,10.13
2019-05-15T06:13:52.578Z,11.08
2019-05-15T06:16:28.357Z,10.48
2019-05-15T06:18:58.941Z,10.15
2019-05-15T06:21:28.636Z,9.60
2019-05-15T06:24:04.856Z,10.13
2019-05-15T06:26:30.197Z,9.73
2019-05-15T06:29:00.658Z,10.30
2019-05-15T06:31:30.045Z,10.32
2019-05-15T06:34:00.462Z,9.88
2019-05-15T06:36:29.917Z,9.65
2019-05-15T06:38:59.454Z,9.85
2019-05-15T06:41:28.880Z,10.10
2019-05-15T06:43:59.318Z,8.98
2019-05-15T06:46:29.683Z,9.50
2019-05-15T06:48:59.169Z,8.85
2019-05-15T06:51:28.949Z,9.60
2019-05-15T06:53:58.503Z,9.28
2019-05-15T06:56:28.298Z,8.40
2019-05-15T06:58:58.789Z,8.90
2019-05-15T07:01:29.452Z,8.30
2019-05-15T07:04:00.971Z,8.45
2019-05-15T07:06:31.784Z,8.15
2019-05-15T07:09:02.281Z,8.25
2019-05-15T07:11:33.082Z,8.43
2019-05-15T07:14:03.380Z,7.90
2019-05-15T07:16:32.856Z,8.20
2019-05-15T07:19:02.314Z,7.03
2019-05-15T07:21:34.553Z,7.20
2019-05-15T07:24:05.638Z,7.00
2019-05-15T07:26:35.096Z,6.62
2019-05-15T07:29:07.902Z,7.12
2019-05-15T07:31:38.388Z,6.87
2019-05-15T07:34:08.448Z,6.45
2019-05-15T07:36:39.188Z,6.55
2019-05-15T07:39:09.755Z,6.83
2019-05-15T07:41:39.381Z,6.12
2019-05-15T07:44:08.883Z,6.25
2019-05-15T07:46:39.071Z,6.15
2019-05-15T07:49:09.533Z,6.35
2019-05-15T07:51:39.127Z,6.42
2019-05-15T07:54:09.366Z,5.58
2019-05-15T07:56:38.858Z,4.90
2019-05-15T07:59:09.212Z,5.87
2019-05-15T08:01:38.827Z,6.62
2019-05-15T08:04:24.681Z,5.62
2019-05-15T08:06:40.568Z,6.67
2019-05-15T08:09:10.125Z,7.50
2019-05-15T08:11:41.248Z,6.30
2019-05-15T08:14:10.675Z,5.70
2019-05-15T08:16:40.135Z,6.87
2019-05-15T08:19:18.366Z,7.95
2019-05-15T08:21:51.741Z,7.00
2019-05-15T08:24:18.964Z,6.25
2019-05-15T08:26:49.282Z,6.25
2019-05-15T08:29:21.556Z,4.30
2019-05-15T08:31:50.020Z,4.12
2019-05-15T08:34:19.810Z,4.22
2019-05-15T08:36:49.305Z,3.95
2019-05-15T08:39:19.811Z,4.92
2019-05-15T08:41:50.940Z,4.50
2019-05-15T08:44:22.373Z,4.92
2019-05-15T08:46:51.918Z,5.50
2019-05-15T08:49:21.486Z,5.37
2019-05-15T08:51:51.019Z,5.05
2019-05-15T08:54:21.622Z,4.15
2019-05-15T08:56:51.911Z,4.17
2019-05-15T08:59:21.422Z,4.47
2019-05-15T09:01:53.384Z,3.37
2019-05-15T09:04:30.375Z,3.37
2019-05-15T09:07:01.168Z,4.13
2019-05-15T09:09:30.729Z,3.92
2019-05-15T09:12:00.369Z,3.58
2019-05-15T09:14:29.893Z,3.47
2019-05-15T09:16:59.453Z,3.47
2019-05-15T09:19:33.216Z,2.65
2019-05-15T09:22:03.627Z,3.02
2019-05-15T09:24:33.108Z,3.80
2019-05-15T09:27:02.581Z,2.95
2019-05-15T09:29:55.167Z,3.37
2019-05-15T09:32:28.337Z,3.75
2019-05-15T09:34:59.252Z,3.33
2019-05-15T09:37:28.773Z,3.60
2019-05-15T09:39:59.228Z,3.65
2019-05-15T09:42:30.368Z,3.85
2019-05-15T09:45:02.330Z,4.20
2019-05-15T09:47:31.883Z,3.80
2019-05-15T09:50:01.467Z,3.95
2019-05-15T09:52:31.006Z,5.37
2019-05-15T09:55:00.510Z,4.45
2019-05-15T09:57:32.256Z,4.92
2019-05-15T10:00:03.193Z,4.80
2019-05-15T10:02:32.803Z,5.00
2019-05-15T10:05:06.591Z,4.72
2019-05-15T10:07:35.500Z,5.03
2019-05-15T10:10:08.719Z,5.67
2019-05-15T10:12:39.316Z,6.00
2019-05-15T10:15:11.144Z,5.65
2019-05-15T10:17:41.368Z,5.53
2019-05-15T10:20:11.012Z,5.33
2019-05-15T10:22:40.457Z,5.00
2019-05-15T10:25:11.808Z,4.65
2019-05-15T10:27:44.027Z,4.00
2019-05-15T10:30:13.907Z,3.98
2019-05-15T10:32:43.448Z,4.35
2019-05-15T10:35:25.735Z,3.90
2019-05-15T10:37:49.185Z,4.17
2019-05-15T10:40:20.358Z,3.90
2019-05-15T10:42:51.698Z,3.70
2019-05-15T10:45:21.495Z,4.05
2019-05-15T10:47:51.069Z,3.62
2019-05-15T10:50:20.601Z,3.87
2019-05-15T10:52:50.074Z,3.92
2019-05-15T10:55:20.095Z,3.30
2019-05-15T10:57:51.105Z,3.17
2019-05-15T11:00:24.130Z,3.80
2019-05-15T11:02:53.581Z,3.27
2019-05-15T11:05:37.367Z,3.47
2019-05-15T11:07:54.526Z,3.60
2019-05-15T11:10:25.527Z,3.52
2019-05-15T11:12:55.085Z,3.47
2019-05-15T11:15:24.732Z,4.17
2019-05-15T11:17:54.735Z,3.80
2019-05-15T11:20:25.804Z,4.05
2019-05-15T11:22:55.225Z,3.67
2019-05-15T11:25:25.770Z,4.03
2019-05-15T11:27:58.982Z,4.17
2019-05-15T11:30:28.561Z,4.00
2019-05-15T11:32:58.727Z,4.20
2019-05-15T11:35:29.421Z,4.17
2019-05-15T11:38:00.972Z,4.03
2019-05-15T11:40:30.453Z,4.90
2019-05-15T11:43:05.007Z,4.30
2019-05-15T11:45:35.537Z,4.60
2019-05-15T11:48:05.062Z,4.65
2019-05-15T11:50:34.612Z,3.98
2019-05-15T11:53:04.163Z,3.98
2019-05-15T11:55:33.700Z,3.87
2019-05-15T11:58:04.802Z,3.72
2019-05-15T12:00:34.416Z,3.90
2019-05-15T12:03:03.937Z,4.05
2019-05-15T12:05:34.427Z,3.98
2019-05-15T12:08:08.700Z,4.00
2019-05-15T12:10:38.909Z,4.17
2019-05-15T12:13:10.909Z,4.08
2019-05-15T12:15:41.484Z,3.73
2019-05-15T12:18:10.933Z,3.65
2019-05-15T12:20:40.417Z,3.70
2019-05-15T12:23:10.978Z,3.30
2019-05-15T12:25:40.407Z,3.50
2019-05-15T12:28:13.400Z,3.67
2019-05-15T12:30:42.824Z,3.40
2019-05-15T12:33:12.554Z,3.37
2019-05-15T12:35:44.776Z,3.25
2019-05-15T12:38:18.757Z,3.27
2019-05-15T13:01:21.873Z,2.42
2019-05-15T13:03:51.184Z,2.62
2019-05-15T13:06:21.757Z,2.70
2019-05-15T13:08:51.272Z,2.50
2019-05-15T13:11:20.684Z,2.70
2019-05-15T13:13:52.385Z,2.37
2019-05-15T13:16:21.933Z,2.30
2019-05-15T13:18:52.921Z,2.10
2019-05-15T13:21:23.359Z,2.87
2019-05-15T13:23:58.538Z,3.00
2019-05-15T13:26:27.527Z,2.20
2019-05-15T13:28:58.360Z,2.10
2019-05-15T13:31:29.227Z,2.12
2019-05-15T13:34:01.596Z,2.80
2019-05-15T13:36:34.888Z,2.52
2019-05-15T13:39:06.051Z,2.27
2019-05-15T13:41:40.138Z,2.50
2019-05-15T13:44:11.411Z,2.72
2019-05-15T13:46:42.049Z,2.30
2019-05-15T13:49:11.629Z,2.20
2019-05-15T13:51:41.335Z,2.55
2019-05-15T13:54:10.809Z,2.58
2019-05-15T13:56:41.709Z,2.70
2019-05-15T13:59:12.361Z,2.47
2019-05-15T14:01:43.176Z,3.22
2019-05-15T14:04:14.236Z,7.40
2019-05-15T14:06:45.765Z,3.17
2019-05-15T14:09:15.376Z,3.08
2019-05-15T14:11:48.893Z,2.70
2019-05-15T14:14:18.153Z,1.92
2019-05-15T14:16:50.414Z,2.72
2019-05-15T14:19:21.026Z,2.20
2019-05-15T14:21:51.685Z,2.20
2019-05-15T14:24:22.312Z,2.00
2019-05-15T14:26:53.692Z,1.90
2019-05-15T14:29:24.086Z,1.90
2019-05-15T14:31:54.562Z,1.70
2019-05-15T14:34:24.013Z,2.05
2019-05-15T14:36:54.793Z,2.08
2019-05-15T14:39:27.901Z,2.00
2019-05-15T14:41:59.894Z,1.80
2019-05-15T14:44:29.406Z,2.17
2019-05-15T14:46:59.179Z,2.17
2019-05-15T14:49:34.468Z,2.40
2019-05-15T14:52:08.277Z,2.00
2019-05-15T14:54:32.148Z,2.30
2019-05-15T14:57:01.642Z,2.35
2019-05-15T14:59:31.099Z,4.08
2019-05-15T15:02:10.201Z,2.27
2019-05-15T15:04:39.683Z,2.45
2019-05-15T15:07:18.860Z,2.00
2019-05-15T15:09:49.806Z,2.00
2019-05-15T15:12:30.937Z,1.80
2019-05-15T15:18:28.118Z,1.60
2019-05-15T15:20:59.583Z,1.90
2019-05-15T15:23:29.017Z,2.00
2019-05-15T15:25:58.633Z,2.05
2019-05-15T15:28:30.920Z,1.80
2019-05-15T15:31:01.941Z,2.08
2019-05-15T15:33:31.574Z,2.05
2019-05-15T15:36:01.118Z,2.12
2019-05-15T15:38:40.024Z,1.82
2019-05-15T15:41:02.651Z,1.98
2019-05-15T15:43:33.107Z,2.12
2019-05-15T15:46:02.741Z,2.22
2019-05-15T15:48:32.193Z,2.47
2019-05-15T15:51:02.734Z,2.55
2019-05-15T15:53:33.322Z,2.20
2019-05-15T15:56:07.833Z,2.47
2019-05-15T15:59:05.748Z,2.17
2019-05-15T16:02:03.725Z,2.40
2019-05-15T16:04:53.498Z,2.50
2019-05-15T16:07:24.616Z,2.50
2019-05-15T16:09:54.286Z,2.40
2019-05-15T16:12:24.957Z,2.62
2019-05-15T16:14:57.821Z,2.33
2019-05-15T16:17:28.674Z,2.12
2019-05-15T16:19:58.216Z,2.60
2019-05-15T16:22:28.328Z,2.72
2019-05-15T16:25:02.692Z,2.15
2019-05-15T16:27:34.365Z,2.40
2019-05-15T16:30:09.473Z,2.45
2019-05-15T16:32:41.511Z,2.50
2019-05-15T16:35:13.518Z,2.47
2019-05-15T16:37:45.987Z,2.70
2019-05-15T16:40:18.300Z,3.17
2019-05-15T16:42:50.417Z,2.67
2019-05-15T16:45:19.714Z,3.02
2019-05-15T16:47:50.806Z,2.87
2019-05-15T16:50:20.311Z,2.40
2019-05-15T16:52:50.128Z,2.83
2019-05-15T16:55:22.350Z,3.10
2019-05-15T16:57:51.829Z,3.22
2019-05-15T17:00:22.147Z,3.27
2019-05-15T17:03:08.562Z,3.00
2019-05-15T17:05:29.148Z,3.50
2019-05-15T17:10:31.408Z,3.37
2019-05-15T17:13:00.884Z,3.20
2019-05-15T17:15:31.821Z,8.88
2019-05-15T17:18:01.943Z,3.17
2019-05-15T17:20:31.710Z,3.00
2019-05-15T17:23:01.425Z,2.90
2019-05-15T17:25:31.827Z,3.00
2019-05-15T17:28:03.271Z,2.92
2019-05-15T17:30:34.789Z,3.00
2019-05-15T17:33:05.235Z,3.15
2019-05-15T17:35:38.203Z,3.30
2019-05-15T17:38:07.862Z,2.77
2019-05-15T17:40:37.932Z,2.72
2019-05-15T17:43:09.400Z,2.62
2019-05-15T17:45:39.541Z,3.05
2019-05-15T17:48:12.193Z,3.12
2019-05-15T17:50:48.658Z,2.92
2019-05-15T17:53:14.769Z,3.52
2019-05-15T17:55:47.782Z,3.30
2019-05-15T17:58:16.618Z,3.00
2019-05-15T18:00:48.475Z,2.85
2019-05-15T18:03:19.082Z,2.72
2019-05-15T18:05:48.556Z,2.80
2019-05-15T18:08:19.451Z,3.00
2019-05-15T18:10:50.024Z,3.37
2019-05-15T18:13:19.574Z,2.85
2019-05-15T18:15:51.107Z,2.92
2019-05-15T18:18:21.499Z,3.30
2019-05-15T18:20:51.123Z,2.72
2019-05-15T18:23:23.504Z,2.75
2019-05-15T18:25:55.296Z,5.95
2019-05-15T18:28:28.083Z,25.43
2019-05-15T18:30:58.738Z,3.47
2019-05-15T18:33:28.531Z,3.15
2019-05-15T18:36:00.613Z,2.40
2019-05-15T18:38:33.218Z,2.92
2019-05-15T18:41:03.925Z,2.90
2019-05-15T18:43:33.481Z,38.75
2019-05-15T18:46:05.868Z,3.12
2019-05-15T18:48:38.235Z,3.33
2019-05-15T18:51:08.226Z,3.22
2019-05-15T18:53:40.347Z,3.60
2019-05-15T18:56:09.964Z,3.10
2019-05-15T18:58:41.457Z,3.02
2019-05-15T19:01:12.468Z,2.83
2019-05-15T19:03:43.189Z,2.98
2019-05-15T19:06:12.786Z,3.42
2019-05-15T19:08:44.585Z,3.25
2019-05-15T19:11:18.440Z,2.70
2019-05-15T19:13:49.693Z,3.00
2019-05-15T19:16:19.123Z,2.70
2019-05-15T19:18:49.600Z,2.80
2019-05-15T19:21:20.102Z,2.70
2019-05-15T19:23:49.863Z,2.60
2019-05-15T19:26:20.922Z,2.72
2019-05-15T19:28:54.554Z,2.85
2019-05-15T19:31:30.498Z,2.22
2019-05-15T19:33:58.918Z,2.80
2019-05-15T19:36:28.731Z,2.65
2019-05-15T19:38:58.372Z,2.92
2019-05-15T19:41:29.210Z,3.47
2019-05-15T19:44:00.169Z,3.40
2019-05-15T19:46:30.695Z,3.15
2019-05-15T19:49:00.228Z,3.75
2019-05-15T19:51:31.659Z,2.62
2019-05-15T19:54:02.113Z,2.95
2019-05-15T19:56:33.918Z,3.98
2019-05-15T19:59:05.086Z,3.25
2019-05-15T20:01:39.585Z,2.60
2019-05-15T20:04:13.268Z,2.87
2019-05-15T20:06:42.876Z,4.40
2019-05-15T20:09:13.604Z,3.17
2019-05-15T20:11:43.254Z,3.92
2019-05-15T20:14:13.497Z,3.50
2019-05-15T20:16:44.519Z,2.92
2019-05-15T20:19:14.571Z,3.87
2019-05-15T20:21:44.099Z,3.25
2019-05-15T20:24:18.054Z,3.00
2019-05-15T20:26:48.713Z,4.95
2019-05-15T20:29:22.212Z,4.92
2019-05-15T20:31:55.908Z,3.12
2019-05-15T20:34:31.668Z,3.02
2019-05-15T20:37:01.150Z,2.87
2019-05-15T20:39:33.883Z,3.00
2019-05-15T20:42:03.400Z,2.92
2019-05-15T20:44:37.846Z,2.70
2019-05-15T20:47:08.289Z,2.98
2019-05-15T20:49:39.457Z,2.90
2019-05-15T20:52:09.468Z,2.70
2019-05-15T20:54:43.993Z,2.90
2019-05-15T20:59:44.018Z,3.22
2019-05-15T21:02:13.728Z,2.87
2019-05-15T21:04:43.271Z,3.50
2019-05-15T21:07:12.752Z,2.72
2019-05-15T21:09:43.842Z,2.60
2019-05-15T21:12:14.967Z,2.92
2019-05-15T21:14:44.783Z,3.00
2019-05-15T21:17:16.021Z,2.90
2019-05-15T21:19:50.091Z,3.20
2019-05-15T21:22:20.528Z,2.90
2019-05-15T21:24:50.021Z,3.20
2019-05-15T21:27:24.061Z,3.10
2019-05-15T21:29:51.524Z,3.10
2019-05-15T21:32:21.282Z,3.05
2019-05-15T21:34:51.911Z,3.00
2019-05-15T21:37:22.367Z,2.95
2019-05-15T21:39:58.975Z,3.00
2019-05-15T21:42:28.596Z,3.00
2019-05-15T21:44:59.587Z,2.58
2019-05-15T21:47:29.209Z,2.67
2019-05-15T21:49:59.110Z,2.52
2019-05-15T21:52:29.387Z,2.90
2019-05-15T21:55:01.961Z,2.70
2019-05-15T21:57:35.948Z,2.45
2019-05-15T22:00:01.087Z,2.80
2019-05-15T22:02:31.281Z,2.77
2019-05-15T22:05:00.718Z,3.12
2019-05-15T22:07:31.736Z,2.52
2019-05-15T22:10:02.485Z,2.80
2019-05-15T22:12:32.301Z,2.70
2019-05-15T22:15:01.742Z,2.52
2019-05-15T22:17:32.893Z,2.50
2019-05-15T22:20:08.454Z,2.70
2019-05-15T22:22:37.114Z,3.10
2019-05-15T22:25:15.479Z,2.80
2019-05-15T22:27:49.377Z,2.83
2019-05-15T22:30:23.675Z,2.70
2019-05-15T22:32:58.471Z,2.80
2019-05-15T22:35:30.258Z,2.60
2019-05-15T22:38:04.836Z,2.62
2019-05-15T22:41:04.091Z,2.72
2019-05-15T22:47:01.914Z,5.20
2019-05-15T22:49:43.241Z,3.02
2019-05-15T22:52:18.436Z,3.35
2019-05-15T22:54:47.988Z,2.60
2019-05-15T22:57:18.448Z,2.65
2019-05-15T22:59:49.614Z,2.65
2019-05-15T23:04:49.259Z,2.98
2019-05-15T23:07:19.017Z,3.17
2019-05-15T23:09:49.047Z,2.90
2019-05-15T23:12:18.622Z,2.92
2019-05-15T23:14:48.536Z,2.95
2019-05-15T23:17:19.184Z,2.77
2019-05-15T23:19:48.706Z,2.83
2019-05-15T23:22:18.626Z,3.10
2019-05-15T23:24:48.353Z,3.30
2019-05-15T23:27:19.372Z,3.20
2019-05-15T23:29:54.849Z,2.72
2019-05-15T23:32:24.490Z,3.10
2019-05-15T23:35:09.147Z,3.00
2019-05-15T23:37:41.423Z,3.47
2019-05-15T23:40:11.983Z,3.10
2019-05-15T23:42:41.490Z,3.40
2019-05-15T23:45:14.869Z,3.22
2019-05-15T23:47:44.338Z,2.85
2019-05-15T23:50:13.929Z,3.40
2019-05-15T23:52:48.678Z,3.52
2019-05-15T23:55:20.901Z,3.33
2019-05-15T23:57:50.399Z,3.50
